Time;durP1;ratioP1;P1;durP2;ratioP2;P2;SDS_P1;SDS_P2;PMS_P1;PMS_P2;Temp;Humidity;BMP_temperature;BMP_pressure;BME280_temperature;BME280_humidity;BME280_pressure;Samples;Min_cycle;Max_cycle;Signal;HPM_P1;HPM_P2
2021/05/08 00:04:37;;;;;;;1999.90;999.90;;;;;;;6.54;70.71;101270.81;15357603;28;20504;-61
2021/05/08 00:12:09;;;;;;;1999.90;999.90;;;;;;;6.53;70.38;101272.75;15338466;29;20092;-59
2021/05/08 00:19:41;;;;;;;1999.90;999.90;;;;;;;6.46;70.62;101269.50;15373723;28;20090;-60
2021/05/08 00:27:13;;;;;;;1999.90;999.90;;;;;;;6.30;71.02;101277.13;15355174;28;20047;-59
2021/05/08 00:34:45;;;;;;;1999.90;999.90;;;;;;;6.23;70.39;101284.94;15338597;28;20504;-57
2021/05/08 00:42:18;;;;;;;1999.90;999.90;;;;;;;6.27;69.76;101283.25;15353643;28;20048;-56
2021/05/08 00:49:51;;;;;;;1999.90;999.90;;;;;;;6.22;70.49;101286.06;15369750;29;20039;-57
2021/05/08 00:57:23;;;;;;;1999.90;999.90;;;;;;;6.16;70.59;101283.66;15369461;28;20054;-56
2021/05/08 01:04:56;;;;;;;1999.90;999.90;;;;;;;6.16;70.31;101289.19;15372298;28;20059;-58
2021/05/08 01:12:28;;;;;;;1999.90;999.90;;;;;;;6.05;71.30;101274.59;15352244;28;20066;-56
2021/05/08 01:20:01;;;;;;;1999.90;999.90;;;;;;;6.03;70.49;101283.16;15368935;28;20122;-56
2021/05/08 01:27:42;;;;;;;1999.90;999.90;;;;;;;5.99;70.75;101286.81;15352051;28;20047;-57
2021/05/08 01:35:14;;;;;;;1999.90;999.90;;;;;;;5.90;70.91;101278.28;15350918;28;20047;-57
2021/05/08 01:42:50;;;;;;;1999.90;999.90;;;;;;;5.84;71.16;101282.19;15350597;28;20054;-59
2021/05/08 01:50:26;;;;;;;1999.90;999.90;;;;;;;5.72;70.64;101290.81;15367693;29;20066;-55
2021/05/08 01:57:59;;;;;;;1999.90;999.90;;;;;;;5.69;70.29;101302.50;15367734;28;20093;-56
2021/05/08 02:05:39;;;;;;;1999.90;999.90;;;;;;;5.79;70.84;101298.81;15334172;28;20079;-55
2021/05/08 02:13:17;;;;;;;1999.90;999.90;;;;;;;5.67;71.63;101290.06;15349344;28;20090;-58
2021/05/08 02:20:51;;;;;;;1999.90;999.90;;;;;;;5.50;71.51;101301.47;15350086;29;20043;-55
2021/05/08 02:28:24;;;;;;;1999.90;999.90;;;;;;;5.42;70.96;101297.38;15371848;28;20109;-57
2021/05/08 02:35:57;;;;;;;1999.90;999.90;;;;;;;5.34;69.98;101297.97;15344374;28;20051;-57
2021/05/08 02:43:29;;;;;;;1999.90;999.90;;;;;;;5.18;70.57;101294.44;15360093;28;20428;-55
2021/05/08 02:51:09;;;;;;;1999.90;999.90;;;;;;;5.21;70.72;101304.97;15359440;29;20039;-52
2021/05/08 02:58:42;;;;;;;1999.90;999.90;;;;;;;5.11;71.17;101306.94;15358907;29;20043;-53
2021/05/08 03:06:14;;;;;;;1999.90;999.90;;;;;;;4.98;71.00;101313.03;15358022;28;20043;-60
2021/05/08 03:13:50;;;;;;;1999.90;999.90;;;;;;;4.96;71.10;101316.09;15357980;28;20047;-56
2021/05/08 03:21:23;;;;;;;;;;;;;;;5.08;70.62;101319.38;15357734;29;20059;-55
2021/05/08 03:28:56;;;;;;;1999.90;999.90;;;;;;;5.19;70.91;101320.16;15372871;29;20259;-51
2021/05/08 03:36:28;;;;;;;;;;;;;;;5.27;70.94;101324.28;15356035;28;20190;-55
2021/05/08 03:44:01;;;;;;;1999.90;999.90;;;;;;;5.15;72.02;101333.75;15371519;28;19989;-58
2021/05/08 03:51:32;;;;;;;1999.90;999.90;;;;;;;5.32;71.11;101343.66;15372494;29;20151;-59
2021/05/08 03:59:05;;;;;;;1999.90;999.90;;;;;;;5.63;70.56;101339.66;15377136;23;20396;-64
2021/05/08 04:06:36;;;;;;;1999.90;999.90;;;;;;;5.89;70.34;101353.34;15376747;29;20088;-62
2021/05/08 04:14:08;;;;;;;1999.90;999.90;;;;;;;6.03;70.45;101357.13;15376648;29;20074;-64
2021/05/08 04:21:40;;;;;;;1999.90;999.90;;;;;;;6.14;69.52;101366.22;15377827;28;20043;-64
2021/05/08 04:29:13;;;;;;;1999.90;999.90;;;;;;;6.61;68.30;101360.88;15376048;29;20139;-63
2021/05/08 04:36:44;;;;;;;1999.90;999.90;;;;;;;6.95;68.03;101363.56;15377310;29;20062;-63
2021/05/08 04:44:17;;;;;;;1999.90;999.90;;;;;;;6.85;67.55;101374.78;15360353;29;20128;-63
2021/05/08 04:51:53;;;;;;;1999.90;999.90;;;;;;;6.91;68.27;101379.16;15374809;28;20051;-64
2021/05/08 04:59:26;;;;;;;1999.90;999.90;;;;;;;7.51;67.17;101379.63;15375789;29;20051;-62
2021/05/08 05:06:58;;;;;;;1999.90;999.90;;;;;;;7.87;66.52;101373.59;15375360;29;20051;-63
2021/05/08 05:14:31;;;;;;;1999.90;999.90;;;;;;;8.13;65.84;101387.97;15357905;29;20047;-64
2021/05/08 05:22:02;;;;;;;1999.90;999.90;;;;;;;8.30;65.63;101402.16;15357500;29;20044;-64
2021/05/08 05:29:35;;;;;;;1999.90;999.90;;;;;;;8.75;63.25;101405.34;15357199;29;20110;-62
2021/05/08 05:37:06;;;;;;;1999.90;999.90;;;;;;;9.94;61.75;101416.75;15357470;29;20127;-63
2021/05/08 05:44:39;;;;;;;1999.90;999.90;;;;;;;11.57;57.21;101421.91;15373906;29;20054;-65
2021/05/08 05:52:11;;;;;;;1999.90;999.90;;;;;;;11.11;58.33;101422.31;15373987;29;20055;-63
2021/05/08 05:59:43;;;;;;;1999.90;999.90;;;;;;;10.70;60.25;101429.78;15373212;28;20051;-62
2021/05/08 06:07:15;;;;;;;1999.90;999.90;;;;;;;11.22;58.93;101440.47;15385130;29;20393;-62
2021/05/08 06:14:47;;;;;;;1999.90;999.90;;;;;;;12.69;55.39;101446.50;15384748;29;20059;-60
2021/05/08 06:22:19;;;;;;;1999.90;999.90;;;;;;;12.79;53.49;101442.56;15351095;29;20135;-63
2021/05/08 06:29:51;;;;;;;1999.90;999.90;;;;;;;12.48;55.58;101443.53;15366578;29;20058;-62
2021/05/08 06:37:23;;;;;;;1999.90;999.90;;;;;;;13.04;54.68;101446.50;15383384;29;20077;-63
2021/05/08 06:44:55;;;;;;;1999.90;999.90;;;;;;;12.28;55.16;101446.97;15382732;29;20126;-65
2021/05/08 06:52:27;;;;;;;1999.90;999.90;;;;;;;13.40;53.13;101457.31;15365048;29;20047;-64
2021/05/08 06:59:59;;;;;;;1999.90;999.90;;;;;;;13.32;51.97;101455.34;15364498;29;20050;-63
2021/05/08 07:07:30;;;;;;;1999.90;999.90;;;;;;;14.20;48.70;101458.28;15381886;29;20051;-63
2021/05/08 07:15:03;;;;;;;1999.90;999.90;;;;;;;15.18;44.41;101458.81;15379647;28;20098;-62
2021/05/08 07:22:35;;;;;;;1999.90;999.90;;;;;;;14.96;44.04;101458.03;15381027;29;20047;-62
2021/05/08 07:30:10;;;;;;;1999.90;999.90;;;;;;;16.11;42.90;101469.31;15363607;29;20055;-63
2021/05/08 07:37:42;;;;;;;1999.90;999.90;;;;;;;17.04;41.92;101466.53;15378349;29;20047;-66
2021/05/08 07:45:15;;;;;;;1999.90;999.90;;;;;;;18.10;39.81;101464.94;15378922;29;20090;-62
2021/05/08 07:52:47;;;;;;;1999.90;999.90;;;;;;;18.72;38.25;101468.81;15378802;29;20769;-62
2021/05/08 08:00:21;;;;;;;1999.90;999.90;;;;;;;18.16;38.38;101466.31;15362257;29;20091;-61
2021/05/08 08:07:53;;;;;;;1999.90;999.90;;;;;;;16.56;41.01;101467.47;15361272;29;20665;-61
2021/05/08 08:15:25;;;;;;;1999.90;999.90;;;;;;;16.27;40.64;101471.41;15359986;29;20063;-65
2021/05/08 08:22:57;;;;;;;1999.90;999.90;;;;;;;18.63;37.70;101471.81;15359314;28;20063;-62
2021/05/08 08:30:29;;;;;;;1999.90;999.90;;;;;;;17.34;38.08;101466.16;15359543;29;20074;-62
2021/05/08 08:38:02;;;;;;;1999.90;999.90;;;;;;;15.78;40.99;101482.66;15333092;28;20043;-58
2021/05/08 08:45:34;;;;;;;1999.90;999.90;;;;;;;14.93;42.31;101478.41;15405194;28;20576;-59
2021/05/08 08:53:11;;;;;;;1999.90;999.90;;;;;;;16.53;40.86;101474.66;15433331;28;20077;-58
2021/05/08 09:00:43;;;;;;;;;;;;;;;17.91;37.30;101467.69;15415969;28;20046;-60
2021/05/08 09:08:14;;;;;;;1999.90;999.90;;;;;;;18.68;37.43;101468.75;15362583;28;20458;-63
2021/05/08 09:15:48;;;;;;;1999.90;999.90;;;;;;;17.20;37.81;101475.88;15414070;28;20160;-64
2021/05/08 09:23:20;;;;;;;;;;;;;;;16.75;38.63;101473.31;15431758;28;20086;-62
2021/05/08 09:30:53;;;;;;;1999.90;999.90;;;;;;;16.85;38.35;101470.00;15431644;28;20397;-60
2021/05/08 09:38:30;;;;;;;1999.90;999.90;;;;;;;18.03;35.83;101459.94;15431377;28;20133;-61
2021/05/08 09:46:03;;;;;;;1999.90;999.90;;;;;;;19.64;33.67;101460.56;15414055;28;20551;-60
2021/05/08 09:53:35;;;;;;;1999.90;999.90;;;;;;;20.42;32.29;101444.84;15409209;28;20469;-61
2021/05/08 10:01:17;;;;;;;1999.90;999.90;;;;;;;19.46;33.58;101441.22;15398060;28;20069;-61
2021/05/08 10:08:48;;;;;;;1999.90;999.90;;;;;;;21.08;30.63;101442.50;15409328;28;20496;-59
2021/05/08 10:16:21;;;;;;;1999.90;999.90;;;;;;;19.16;32.48;101429.72;15372545;28;20047;-60
2021/05/08 10:23:54;;;;;;;1999.90;999.90;;;;;;;19.68;31.05;101439.63;15308578;29;20051;-63
2021/05/08 10:31:27;;;;;;;1999.90;999.90;;;;;;;17.79;33.37;101438.38;15309465;29;20067;-62
2021/05/08 10:39:05;;;;;;;1999.90;999.90;;;;;;;19.20;32.92;101429.81;15310938;29;20048;-60
2021/05/08 10:46:52;;;;;;;1999.90;999.90;;;;;;;19.71;29.66;101423.91;15312464;29;20102;-63
2021/05/08 10:54:54;;;;;;;1999.90;999.90;;;;;;;18.77;34.57;101414.84;15321164;29;20111;-63
2021/05/08 11:03:02;;;;;;;1999.90;999.90;;;;;;;18.46;34.58;101418.56;15322498;29;20524;-62
2021/05/08 11:10:38;;;;;;;1999.90;999.90;;;;;;;18.61;32.55;101408.38;15321675;29;20055;-63
2021/05/08 11:18:11;;;;;;;1999.90;999.90;;;;;;;17.96;33.53;101399.66;15312973;28;20126;-62
2021/05/08 11:25:42;;;;;;;1999.90;999.90;;;;;;;18.23;34.34;101395.03;15406646;28;20411;-62
2021/05/08 11:33:21;;;;;;;1999.90;999.90;;;;;;;19.44;30.56;101387.00;15348439;28;20130;-63
2021/05/08 11:40:52;;;;;;;1999.90;999.90;;;;;;;17.98;32.65;101375.50;15347725;28;20083;-61
2021/05/08 11:48:25;;;;;;;1999.90;999.90;;;;;;;19.68;31.70;101371.66;15316027;29;20528;-63
2021/05/08 11:55:56;;;;;;;1999.90;999.90;;;;;;;22.87;25.98;101361.09;15436020;28;20051;-65
2021/05/08 12:03:29;;;;;;;1999.90;999.90;;;;;;;21.43;28.96;101362.63;15434799;28;20051;-65
2021/05/08 12:11:00;;;;;;;1999.90;999.90;;;;;;;20.02;31.72;101358.47;15435874;28;20188;-63
2021/05/08 12:18:34;;;;;;;1999.90;999.90;;;;;;;19.16;32.17;101349.72;15388099;28;20078;-62
2021/05/08 12:26:10;;;;;;;1999.90;999.90;;;;;;;18.71;31.78;101345.63;15403243;28;20051;-62
2021/05/08 12:33:43;;;;;;;1999.90;999.90;;;;;;;18.85;31.94;101343.06;15422040;28;20069;-63
2021/05/08 12:41:26;;;;;;;1999.90;999.90;;;;;;;23.63;25.44;101340.06;15422055;28;20043;-63
2021/05/08 12:49:06;;;;;;;1999.90;999.90;;;;;;;20.07;28.09;101324.13;15418404;28;20093;-63
2021/05/08 12:56:37;;;;;;;1999.90;999.90;;;;;;;24.13;26.68;101311.50;15418964;28;20311;-62
2021/05/08 13:04:10;;;;;;;1999.90;999.90;;;;;;;20.54;28.10;101300.06;15418604;28;20039;-61
2021/05/08 13:11:43;;;;;;;1999.90;999.90;;;;;;;29.30;19.97;101313.97;15416441;28;20042;-63
2021/05/08 13:19:17;;;;;;;1999.90;999.90;;;;;;;21.27;27.28;101303.28;15400452;28;20047;-63
2021/05/08 13:26:48;;;;;;;1999.90;999.90;;;;;;;23.83;24.71;101289.16;15416112;28;20058;-63
2021/05/08 13:34:21;;;;;;;1999.90;999.90;;;;;;;20.15;26.17;101276.88;15416019;28;20488;-61
2021/05/08 13:41:52;;;;;;;1999.90;999.90;;;;;;;19.17;27.05;101266.47;15400116;28;20142;-62
2021/05/08 13:49:25;;;;;;;1999.90;999.90;;;;;;;18.60;29.02;101271.09;15416170;28;20377;-60
2021/05/08 13:56:56;;;;;;;1999.90;999.90;;;;;;;19.86;29.18;101264.34;15400288;28;20089;-61
2021/05/08 14:04:29;;;;;;;1999.90;999.90;;;;;;;19.23;28.32;101257.31;15415752;28;20086;-60
2021/05/08 14:12:00;;;;;;;1999.90;999.90;;;;;;;18.79;28.40;101244.81;15414576;28;20047;-62
2021/05/08 14:19:34;;;;;;;1999.90;999.90;;;;;;;18.28;29.25;101226.06;15387513;28;20509;-62
2021/05/08 14:27:06;;;;;;;1999.90;999.90;;;;;;;18.89;27.13;101219.56;15384295;28;20044;-61
2021/05/08 14:34:39;;;;;;;1999.90;999.90;;;;;;;18.83;28.65;101218.22;15304203;29;20048;-62
2021/05/08 14:42:11;;;;;;;1999.90;999.90;;;;;;;18.85;28.23;101209.38;15336637;29;20551;-62
2021/05/08 14:49:46;;;;;;;1999.90;999.90;;;;;;;18.54;28.72;101204.75;15303923;29;20035;-62
2021/05/08 14:57:17;;;;;;;1999.90;999.90;;;;;;;19.07;27.58;101202.06;15304276;29;20147;-61
2021/05/08 15:04:50;;;;;;;1999.90;999.90;;;;;;;18.73;28.61;101194.22;15341396;28;20070;-62
2021/05/08 15:12:21;;;;;;;1999.90;999.90;;;;;;;18.44;29.54;101190.06;15377114;28;20099;-63
2021/05/08 15:19:54;;;;;;;1999.90;999.90;;;;;;;18.11;29.74;101189.81;15325412;28;20047;-62
2021/05/08 15:27:26;;;;;;;1999.90;999.90;;;;;;;18.96;30.58;101173.59;15437393;28;20433;-62
2021/05/08 15:34:58;;;;;;;1999.90;999.90;;;;;;;18.72;30.13;101169.19;15420407;28;20046;-61
2021/05/08 15:42:32;;;;;;;1999.90;999.90;;;;;;;18.96;30.01;101162.28;15437889;28;20089;-62
2021/05/08 15:50:06;;;;;;;1999.90;999.90;;;;;;;18.83;29.76;101150.38;15436910;28;20078;-58
2021/05/08 15:57:37;;;;;;;1999.90;999.90;;;;;;;17.98;30.48;101143.16;15407756;28;20063;-62
2021/05/08 16:05:15;;;;;;;1999.90;999.90;;;;;;;18.11;29.85;101127.66;15436704;28;20062;-63
2021/05/08 16:12:49;;;;;;;1999.90;999.90;;;;;;;18.49;29.19;101128.78;15418957;28;20043;-63
2021/05/08 16:20:21;;;;;;;1999.90;999.90;;;;;;;17.66;30.84;101131.19;15402216;28;20043;-60
2021/05/08 16:27:53;;;;;;;1999.90;999.90;;;;;;;18.26;30.42;101125.94;15435355;28;20046;-62
2021/05/08 16:35:26;;;;;;;1999.90;999.90;;;;;;;17.97;31.04;101110.47;15418422;28;20043;-61
2021/05/08 16:42:57;;;;;;;1999.90;999.90;;;;;;;17.83;31.18;101111.84;15417750;28;20053;-59
2021/05/08 16:50:30;;;;;;;1999.90;999.90;;;;;;;18.13;31.85;101099.88;15416323;28;20050;-60
2021/05/08 16:58:01;;;;;;;1999.90;999.90;;;;;;;18.15;33.37;101103.97;15416085;28;20057;-59
2021/05/08 17:05:34;;;;;;;1999.90;999.90;;;;;;;17.51;34.44;101099.84;15398210;28;20055;-61
2021/05/08 17:13:05;;;;;;;1999.90;999.90;;;;;;;17.24;32.99;101083.94;15414442;28;20078;-60
2021/05/08 17:20:38;;;;;;;1999.90;999.90;;;;;;;17.43;34.63;101077.50;15404562;28;20540;-62
2021/05/08 17:28:09;;;;;;;1999.90;999.90;;;;;;;16.84;34.92;101072.97;15370952;29;20043;-59
2021/05/08 17:35:42;;;;;;;1999.90;999.90;;;;;;;17.15;36.01;101070.06;15375550;29;20044;-61
2021/05/08 17:43:13;;;;;;;1999.90;999.90;;;;;;;16.66;38.94;101078.94;15375961;29;20047;-59
2021/05/08 17:50:46;;;;;;;1999.90;999.90;;;;;;;16.57;37.53;101071.88;15342414;29;20043;-61
2021/05/08 17:58:17;;;;;;;1999.90;999.90;;;;;;;16.21;37.91;101073.00;15361402;28;20051;-62
2021/05/08 18:05:50;;;;;;;1999.90;999.90;;;;;;;15.93;39.71;101075.88;15385621;29;20043;-62
2021/05/08 18:13:22;;;;;;;1999.90;999.90;;;;;;;15.79;39.63;101070.66;15352569;29;20044;-64
2021/05/08 18:20:56;;;;;;;1999.90;999.90;;;;;;;15.91;38.19;101081.03;15368108;29;20402;-64
2021/05/08 18:28:31;;;;;;;1999.90;999.90;;;;;;;15.64;38.83;101075.09;15384690;29;20051;-63
2021/05/08 18:36:04;;;;;;;1999.90;999.90;;;;;;;15.57;39.28;101072.84;15366719;29;20050;-62
2021/05/08 18:43:36;;;;;;;1999.90;999.90;;;;;;;16.03;38.99;101076.16;15384009;29;20135;-61
2021/05/08 18:51:09;;;;;;;1999.90;999.90;;;;;;;16.05;39.21;101087.06;15384047;29;20043;-63
2021/05/08 18:58:41;;;;;;;1999.90;999.90;;;;;;;15.95;38.62;101074.34;15383369;29;20568;-63
2021/05/08 19:06:13;;;;;;;1999.90;999.90;;;;;;;15.82;39.59;101072.75;15382833;29;20047;-63
2021/05/08 19:13:47;;;;;;;1999.90;999.90;;;;;;;15.46;40.09;101056.84;15382014;28;20136;-60
2021/05/08 19:21:20;;;;;;;1999.90;999.90;;;;;;;14.93;40.03;101042.03;15347368;28;20065;-60
2021/05/08 19:28:52;;;;;;;1999.90;999.90;;;;;;;15.07;39.71;101027.59;15360378;29;20059;-61
2021/05/08 19:36:24;;;;;;;1999.90;999.90;;;;;;;15.04;41.06;101026.31;15363043;29;20047;-60
2021/05/08 19:43:56;;;;;;;1999.90;999.90;;;;;;;14.96;40.77;101019.66;15362777;29;20046;-61
2021/05/08 19:51:28;;;;;;;1999.90;999.90;;;;;;;14.99;39.62;101021.75;15362619;29;20110;-62
2021/05/08 19:59:00;;;;;;;1999.90;999.90;;;;;;;15.17;39.54;101029.91;15378970;29;20070;-62
2021/05/08 20:06:32;;;;;;;1999.90;999.90;;;;;;;15.28;38.74;101022.59;15378908;29;20059;-62
2021/05/08 20:14:04;;;;;;;1999.90;999.90;;;;;;;15.02;38.84;101012.63;15362252;29;20051;-60
2021/05/08 20:21:36;;;;;;;1999.90;999.90;;;;;;;14.91;39.94;101008.69;15345359;28;20054;-61
2021/05/08 20:29:08;;;;;;;1999.90;999.90;;;;;;;14.83;38.95;100992.78;15360421;29;20509;-62
2021/05/08 20:36:41;;;;;;;1999.90;999.90;;;;;;;14.54;40.95;100984.63;15379380;29;20504;-60
2021/05/08 20:44:13;;;;;;;1999.90;999.90;;;;;;;14.53;42.34;100954.91;15360484;29;20043;-59
2021/05/08 20:51:46;;;;;;;1999.90;999.90;;;;;;;14.56;42.02;100949.41;15360161;29;20114;-62
2021/05/08 20:59:19;;;;;;;1999.90;999.90;;;;;;;14.59;42.05;100934.69;15376677;29;20417;-63
2021/05/08 21:06:51;;;;;;;1999.90;999.90;;;;;;;14.36;42.19;100939.94;15343649;29;20307;-63
2021/05/08 21:14:23;;;;;;;1999.90;999.90;;;;;;;13.91;43.13;100951.31;15375878;29;20051;-59
2021/05/08 21:21:55;;;;;;;1999.90;999.90;;;;;;;13.89;43.74;100947.22;15358724;29;20147;-61
2021/05/08 21:29:27;;;;;;;1999.90;999.90;;;;;;;13.70;44.06;100943.00;15353631;29;20047;-60
2021/05/08 21:37:00;;;;;;;1999.90;999.90;;;;;;;13.84;43.23;100945.44;15358291;29;20047;-63
2021/05/08 21:44:31;;;;;;;1999.90;999.90;;;;;;;13.95;42.61;100940.19;15373752;29;20114;-60
2021/05/08 21:52:03;;;;;;;1999.90;999.90;;;;;;;14.27;42.83;100930.81;15356411;29;20125;-61
2021/05/08 21:59:36;;;;;;;1999.90;999.90;;;;;;;14.37;45.21;100941.56;15379423;23;20504;-60
2021/05/08 22:07:10;;;;;;;1999.90;999.90;;;;;;;14.32;42.54;100932.59;15367925;28;20055;-60
2021/05/08 22:14:41;;;;;;;1999.90;999.90;;;;;;;14.22;44.12;100935.88;15349172;28;20111;-59
2021/05/08 22:22:13;;;;;;;1999.90;999.90;;;;;;;14.10;43.13;100929.09;15349018;29;20039;-58
2021/05/08 22:29:45;;;;;;;1999.90;999.90;;;;;;;13.77;43.30;100918.00;15366007;28;20578;-56
2021/05/08 22:37:17;;;;;;;1999.90;999.90;;;;;;;14.03;43.99;100912.03;15366111;28;20053;-61
2021/05/08 22:44:49;;;;;;;1999.90;999.90;;;;;;;13.90;43.99;100902.00;15369624;28;20517;-59
2021/05/08 22:52:21;;;;;;;1999.90;999.90;;;;;;;14.12;44.15;100878.25;15358788;29;20439;-59
2021/05/08 22:59:53;;;;;;;1999.90;999.90;;;;;;;13.74;44.52;100865.41;15375478;28;20054;-60
2021/05/08 23:07:27;;;;;;;1999.90;999.90;;;;;;;13.92;44.32;100859.56;15357812;28;20046;-59
2021/05/08 23:15:00;;;;;;;1999.90;999.90;;;;;;;13.95;43.75;100856.03;15355440;28;20129;-58
2021/05/08 23:22:32;;;;;;;1999.90;999.90;;;;;;;13.34;44.66;100844.81;15374403;29;20416;-61
2021/05/08 23:30:05;;;;;;;1999.90;999.90;;;;;;;13.46;44.88;100828.03;15373469;28;20134;-61
2021/05/08 23:37:38;;;;;;;1999.90;999.90;;;;;;;13.66;43.70;100827.09;15373844;28;20367;-61
2021/05/08 23:45:11;;;;;;;1999.90;999.90;;;;;;;13.88;41.97;100816.56;15355583;28;20114;-61
2021/05/08 23:52:43;;;;;;;1999.90;999.90;;;;;;;14.14;41.48;100814.16;15355831;28;20078;-59
